sensor_id;sensor_type;location;lat;lon;timestamp;pressure;altitude;pressure_sealevel;temperature;humidity
62011;BME280;47967;51.756;10.174;2024-02-16T05:00:33;99405.28;;;10.27;100.00
62011;BME280;47967;51.756;10.174;2024-02-16T05:04:36;99399.47;;;10.23;100.00
62011;BME280;47967;51.756;10.174;2024-02-16T05:08:38;99409.81;;;10.26;100.00
62011;BME280;47967;51.756;10.174;2024-02-16T05:12:41;99410.44;;;10.21;100.00
62011;BME280;47967;51.756;10.174;2024-02-16T05:16:45;99408.16;;;10.25;100.00
62011;BME280;47967;51.756;10.174;2024-02-16T05:20:48;99403.59;;;10.32;100.00
62011;BME280;47967;51.756;10.174;2024-02-16T05:24:50;99396.97;;;10.35;100.00
62011;BME280;47967;51.756;10.174;2024-02-16T05:28:53;99405.03;;;10.21;100.00
62011;BME280;47967;51.756;10.174;2024-02-16T05:32:57;99396.13;;;10.21;100.00
62011;BME280;47967;51.756;10.174;2024-02-16T05:37:00;99389.50;;;10.30;100.00
62011;BME280;47967;51.756;10.174;2024-02-16T05:41:04;99394.72;;;10.38;100.00
62011;BME280;47967;51.756;10.174;2024-02-16T05:45:07;99390.16;;;10.52;100.00
62011;BME280;47967;51.756;10.174;2024-02-16T05:49:13;99384.09;;;10.70;100.00
62011;BME280;47967;51.756;10.174;2024-02-16T05:53:16;99382.00;;;10.79;100.00
62011;BME280;47967;51.756;10.174;2024-02-16T05:57:20;99394.47;;;10.73;100.00
62011;BME280;47967;51.756;10.174;2024-02-16T06:01:22;99389.47;;;10.77;100.00
62011;BME280;47967;51.756;10.174;2024-02-16T06:05:26;99386.19;;;10.68;100.00
62011;BME280;47967;51.756;10.174;2024-02-16T06:09:30;99382.47;;;10.49;100.00
62011;BME280;47967;51.756;10.174;2024-02-16T06:13:35;99390.53;;;10.36;100.00
62011;BME280;47967;51.756;10.174;2024-02-16T06:17:38;99394.09;;;10.43;100.00
62011;BME280;47967;51.756;10.174;2024-02-16T06:21:43;99387.88;;;10.56;100.00
62011;BME280;47967;51.756;10.174;2024-02-16T06:25:45;99397.59;;;10.64;100.00
62011;BME280;47967;51.756;10.174;2024-02-16T06:29:48;99407.34;;;10.71;100.00
62011;BME280;47967;51.756;10.174;2024-02-16T06:33:51;99401.53;;;10.75;100.00
62011;BME280;47967;51.756;10.174;2024-02-16T06:37:55;99414.81;;;10.83;100.00
62011;BME280;47967;51.756;10.174;2024-02-16T06:41:58;99421.84;;;10.91;100.00
62011;BME280;47967;51.756;10.174;2024-02-16T06:46:01;99427.66;;;10.87;100.00
62011;BME280;47967;51.756;10.174;2024-02-16T06:50:04;99420.19;;;10.83;100.00
62011;BME280;47967;51.756;10.174;2024-02-16T06:54:08;99416.28;;;10.72;100.00
62011;BME280;47967;51.756;10.174;2024-02-16T06:58:11;99416.88;;;10.74;100.00
62011;BME280;47967;51.756;10.174;2024-02-16T07:02:13;99400.91;;;10.79;100.00
62011;BME280;47967;51.756;10.174;2024-02-16T07:06:17;99404.13;;;11.08;100.00
62011;BME280;47967;51.756;10.174;2024-02-16T07:10:21;99414.53;;;11.04;100.00
62011;BME280;47967;51.756;10.174;2024-02-16T07:14:24;99420.75;;;11.12;100.00
62011;BME280;47967;51.756;10.174;2024-02-16T07:18:27;99410.16;;;11.17;100.00
62011;BME280;47967;51.756;10.174;2024-02-16T07:22:30;99420.06;;;11.36;100.00
62011;BME280;47967;51.756;10.174;2024-02-16T07:26:35;99406.91;;;11.47;100.00
62011;BME280;47967;51.756;10.174;2024-02-16T07:30:37;99402.31;;;11.54;100.00
62011;BME280;47967;51.756;10.174;2024-02-16T07:34:45;99412.88;;;11.56;100.00
62011;BME280;47967;51.756;10.174;2024-02-16T07:38:47;99416.75;;;11.73;100.00
62011;BME280;47967;51.756;10.174;2024-02-16T07:42:51;99419.66;;;11.72;100.00
62011;BME280;47967;51.756;10.174;2024-02-16T07:46:54;99425.00;;;11.85;100.00
62011;BME280;47967;51.756;10.174;2024-02-16T07:50:57;99424.28;;;12.03;100.00
62011;BME280;47967;51.756;10.174;2024-02-16T07:55:04;99429.59;;;12.16;100.00
62011;BME280;47967;51.756;10.174;2024-02-16T07:59:08;99426.81;;;12.30;100.00
62011;BME280;47967;51.756;10.174;2024-02-16T08:03:10;99432.56;;;12.40;100.00
62011;BME280;47967;51.756;10.174;2024-02-16T08:07:13;99441.13;;;12.37;100.00
62011;BME280;47967;51.756;10.174;2024-02-16T08:11:16;99445.59;;;12.50;100.00
62011;BME280;47967;51.756;10.174;2024-02-16T08:15:20;99449.84;;;12.64;100.00
62011;BME280;47967;51.756;10.174;2024-02-16T08:19:32;99441.78;;;12.83;100.00
62011;BME280;47967;51.756;10.174;2024-02-16T08:23:35;99445.25;;;12.90;100.00
62011;BME280;47967;51.756;10.174;2024-02-16T08:27:38;99449.38;;;12.93;100.00
62011;BME280;47967;51.756;10.174;2024-02-16T08:31:42;99449.91;;;13.02;100.00
62011;BME280;47967;51.756;10.174;2024-02-16T08:35:46;99452.91;;;13.12;100.00
62011;BME280;47967;51.756;10.174;2024-02-16T08:39:48;99455.88;;;13.29;100.00
62011;BME280;47967;51.756;10.174;2024-02-16T08:43:51;99461.88;;;13.38;100.00
62011;BME280;47967;51.756;10.174;2024-02-16T08:47:55;99451.97;;;13.43;100.00
62011;BME280;47967;51.756;10.174;2024-02-16T08:51:58;99452.81;;;13.63;100.00
62011;BME280;47967;51.756;10.174;2024-02-16T08:56:01;99459.41;;;13.67;100.00
62011;BME280;47967;51.756;10.174;2024-02-16T09:00:04;99454.69;;;13.92;100.00
62011;BME280;47967;51.756;10.174;2024-02-16T09:04:08;99456.34;;;13.93;100.00
62011;BME280;47967;51.756;10.174;2024-02-16T09:08:11;99463.25;;;13.77;100.00
62011;BME280;47967;51.756;10.174;2024-02-16T09:12:14;99455.97;;;13.78;100.00
62011;BME280;47967;51.756;10.174;2024-02-16T09:16:17;99455.59;;;13.74;100.00
62011;BME280;47967;51.756;10.174;2024-02-16T09:20:25;99452.91;;;13.86;100.00
62011;BME280;47967;51.756;10.174;2024-02-16T09:24:27;99449.81;;;14.13;100.00
62011;BME280;47967;51.756;10.174;2024-02-16T09:28:31;99446.66;;;14.16;100.00
62011;BME280;47967;51.756;10.174;2024-02-16T09:32:33;99454.94;;;14.45;100.00
62011;BME280;47967;51.756;10.174;2024-02-16T09:36:37;99461.63;;;14.73;100.00
62011;BME280;47967;51.756;10.174;2024-02-16T09:40:40;99480.66;;;14.73;100.00
62011;BME280;47967;51.756;10.174;2024-02-16T09:44:42;99463.56;;;14.84;100.00
62011;BME280;47967;51.756;10.174;2024-02-16T09:48:46;99464.63;;;14.95;100.00
62011;BME280;47967;51.756;10.174;2024-02-16T09:52:56;99470.63;;;14.73;100.00
62011;BME280;47967;51.756;10.174;2024-02-16T09:56:58;99463.63;;;14.66;100.00
62011;BME280;47967;51.756;10.174;2024-02-16T10:01:01;99471.84;;;14.47;100.00
62011;BME280;47967;51.756;10.174;2024-02-16T10:05:09;99477.16;;;14.42;100.00
62011;BME280;47967;51.756;10.174;2024-02-16T10:09:21;99474.81;;;14.46;100.00
62011;BME280;47967;51.756;10.174;2024-02-16T10:13:24;99482.03;;;14.64;100.00
62011;BME280;47967;51.756;10.174;2024-02-16T10:17:26;99489.06;;;14.83;100.00
62011;BME280;47967;51.756;10.174;2024-02-16T10:21:29;99492.81;;;15.06;100.00
62011;BME280;47967;51.756;10.174;2024-02-16T10:25:34;99491.28;;;15.34;100.00
62011;BME280;47967;51.756;10.174;2024-02-16T10:29:36;99493.72;;;15.47;100.00
62011;BME280;47967;51.756;10.174;2024-02-16T10:33:40;99497.47;;;15.70;98.63
62011;BME280;47967;51.756;10.174;2024-02-16T10:37:45;99489.16;;;15.77;98.70
62011;BME280;47967;51.756;10.174;2024-02-16T10:41:49;99481.91;;;15.53;97.78
62011;BME280;47967;51.756;10.174;2024-02-16T10:45:52;99479.31;;;15.47;99.39
62011;BME280;47967;51.756;10.174;2024-02-16T10:49:56;99472.50;;;15.32;99.85
62011;BME280;47967;51.756;10.174;2024-02-16T10:53:59;99478.28;;;15.24;98.80
62011;BME280;47967;51.756;10.174;2024-02-16T10:58:06;99464.94;;;15.34;99.08
62011;BME280;47967;51.756;10.174;2024-02-16T11:02:09;99470.03;;;15.31;98.41
62011;BME280;47967;51.756;10.174;2024-02-16T11:06:14;99465.97;;;15.45;98.89
62011;BME280;47967;51.756;10.174;2024-02-16T11:10:20;99460.84;;;15.61;99.79
62011;BME280;47967;51.756;10.174;2024-02-16T11:14:33;99454.63;;;15.89;97.71
62011;BME280;47967;51.756;10.174;2024-02-16T11:18:39;99447.28;;;15.90;97.50
62011;BME280;47967;51.756;10.174;2024-02-16T11:22:42;99453.34;;;15.80;97.65
62011;BME280;47967;51.756;10.174;2024-02-16T11:26:45;99458.31;;;15.83;97.79
62011;BME280;47967;51.756;10.174;2024-02-16T11:30:49;99466.59;;;15.88;97.85
62011;BME280;47967;51.756;10.174;2024-02-16T11:35:04;99468.13;;;16.13;95.02
62011;BME280;47967;51.756;10.174;2024-02-16T11:39:11;99453.13;;;16.10;94.32
62011;BME280;47967;51.756;10.174;2024-02-16T11:43:19;99458.06;;;16.13;94.74
62011;BME280;47967;51.756;10.174;2024-02-16T11:47:24;99460.22;;;16.11;93.59
62011;BME280;47967;51.756;10.174;2024-02-16T11:51:30;99464.91;;;16.16;93.71
62011;BME280;47967;51.756;10.174;2024-02-16T11:55:33;99468.22;;;16.18;93.23
62011;BME280;47967;51.756;10.174;2024-02-16T11:59:36;99473.78;;;16.40;94.72
62011;BME280;47967;51.756;10.174;2024-02-16T12:03:41;99469.06;;;16.53;93.96
62011;BME280;47967;51.756;10.174;2024-02-16T12:07:45;99459.28;;;16.69;94.25
62011;BME280;47967;51.756;10.174;2024-02-16T12:11:48;99454.69;;;16.91;91.79
62011;BME280;47967;51.756;10.174;2024-02-16T12:15:51;99462.50;;;17.00;89.09
62011;BME280;47967;51.756;10.174;2024-02-16T12:19:55;99464.06;;;16.78;88.55
62011;BME280;47967;51.756;10.174;2024-02-16T12:23:58;99471.91;;;17.09;86.46
62011;BME280;47967;51.756;10.174;2024-02-16T12:28:01;99453.84;;;17.25;86.34
62011;BME280;47967;51.756;10.174;2024-02-16T12:32:05;99448.41;;;17.25;86.63
62011;BME280;47967;51.756;10.174;2024-02-16T12:36:09;99457.72;;;17.29;87.63
62011;BME280;47967;51.756;10.174;2024-02-16T12:40:12;99457.56;;;17.58;86.07
62011;BME280;47967;51.756;10.174;2024-02-16T12:44:14;99457.66;;;17.46;85.37
62011;BME280;47967;51.756;10.174;2024-02-16T12:48:17;99460.44;;;17.51;84.94
62011;BME280;47967;51.756;10.174;2024-02-16T12:52:23;99476.19;;;17.66;83.85
62011;BME280;47967;51.756;10.174;2024-02-16T12:56:27;99479.63;;;17.79;83.39
62011;BME280;47967;51.756;10.174;2024-02-16T13:00:29;99474.94;;;17.96;81.55
62011;BME280;47967;51.756;10.174;2024-02-16T13:04:32;99476.13;;;18.05;81.90
62011;BME280;47967;51.756;10.174;2024-02-16T13:08:36;99475.50;;;17.98;81.92
62011;BME280;47967;51.756;10.174;2024-02-16T13:12:39;99466.34;;;18.10;81.84
62011;BME280;47967;51.756;10.174;2024-02-16T13:16:44;99474.00;;;17.90;83.15
62011;BME280;47967;51.756;10.174;2024-02-16T13:20:47;99465.97;;;18.01;82.69
62011;BME280;47967;51.756;10.174;2024-02-16T13:24:51;99471.22;;;18.07;83.32
62011;BME280;47967;51.756;10.174;2024-02-16T13:28:53;99477.06;;;17.94;83.65
62011;BME280;47967;51.756;10.174;2024-02-16T13:32:56;99481.78;;;17.99;86.04
62011;BME280;47967;51.756;10.174;2024-02-16T13:36:59;99485.09;;;17.79;87.34
62011;BME280;47967;51.756;10.174;2024-02-16T13:41:03;99476.31;;;17.54;87.21
62011;BME280;47967;51.756;10.174;2024-02-16T13:45:07;99477.88;;;17.28;87.46
62011;BME280;47967;51.756;10.174;2024-02-16T13:49:13;99489.00;;;16.87;88.79
62011;BME280;47967;51.756;10.174;2024-02-16T13:53:16;99487.16;;;16.76;91.10
62011;BME280;47967;51.756;10.174;2024-02-16T13:57:26;99497.56;;;16.79;90.32
62011;BME280;47967;51.756;10.174;2024-02-16T14:01:28;99501.03;;;16.74;90.48
62011;BME280;47967;51.756;10.174;2024-02-16T14:05:32;99501.75;;;16.70;94.69
62011;BME280;47967;51.756;10.174;2024-02-16T14:09:35;99508.13;;;16.58;93.29
62011;BME280;47967;51.756;10.174;2024-02-16T14:13:42;99505.78;;;16.50;93.81
62011;BME280;47967;51.756;10.174;2024-02-16T14:17:45;99516.94;;;16.48;95.56
62011;BME280;47967;51.756;10.174;2024-02-16T14:21:48;99513.75;;;16.23;97.42
62011;BME280;47967;51.756;10.174;2024-02-16T14:25:54;99521.06;;;16.05;99.96
62011;BME280;47967;51.756;10.174;2024-02-16T14:29:58;99522.88;;;15.88;100.00
62011;BME280;47967;51.756;10.174;2024-02-16T14:34:01;99531.53;;;15.84;100.00
62011;BME280;47967;51.756;10.174;2024-02-16T14:38:04;99520.66;;;15.73;100.00
62011;BME280;47967;51.756;10.174;2024-02-16T14:42:07;99523.38;;;15.61;100.00
62011;BME280;47967;51.756;10.174;2024-02-16T14:46:11;99539.94;;;15.59;100.00
62011;BME280;47967;51.756;10.174;2024-02-16T14:50:15;99551.28;;;15.56;100.00
62011;BME280;47967;51.756;10.174;2024-02-16T14:54:18;99556.88;;;15.49;100.00
62011;BME280;47967;51.756;10.174;2024-02-16T14:58:21;99569.75;;;15.42;100.00
62011;BME280;47967;51.756;10.174;2024-02-16T15:02:25;99579.47;;;15.38;100.00
62011;BME280;47967;51.756;10.174;2024-02-16T15:06:28;99578.38;;;15.27;100.00
62011;BME280;47967;51.756;10.174;2024-02-16T15:10:34;99580.88;;;15.29;100.00
62011;BME280;47967;51.756;10.174;2024-02-16T15:14:39;99599.78;;;15.24;100.00
62011;BME280;47967;51.756;10.174;2024-02-16T15:19:01;99600.22;;;15.09;100.00
62011;BME280;47967;51.756;10.174;2024-02-16T15:23:05;99598.09;;;15.11;100.00
62011;BME280;47967;51.756;10.174;2024-02-16T15:27:07;99610.25;;;15.08;100.00
62011;BME280;47967;51.756;10.174;2024-02-16T15:31:11;99615.91;;;14.95;100.00
62011;BME280;47967;51.756;10.174;2024-02-16T15:35:15;99617.44;;;14.91;100.00
62011;BME280;47967;51.756;10.174;2024-02-16T15:39:18;99620.94;;;14.79;100.00
62011;BME280;47967;51.756;10.174;2024-02-16T15:43:21;99626.34;;;14.79;100.00
62011;BME280;47967;51.756;10.174;2024-02-16T15:47:24;99635.81;;;14.77;100.00
62011;BME280;47967;51.756;10.174;2024-02-16T15:51:27;99634.50;;;14.79;100.00
62011;BME280;47967;51.756;10.174;2024-02-16T15:55:30;99628.25;;;14.79;100.00
62011;BME280;47967;51.756;10.174;2024-02-16T15:59:33;99640.06;;;14.72;100.00
62011;BME280;47967;51.756;10.174;2024-02-16T16:03:35;99643.91;;;14.65;100.00
62011;BME280;47967;51.756;10.174;2024-02-16T16:07:40;99646.91;;;14.56;100.00
62011;BME280;47967;51.756;10.174;2024-02-16T16:11:45;99643.91;;;14.46;100.00
62011;BME280;47967;51.756;10.174;2024-02-16T16:15:47;99649.19;;;14.41;100.00
62011;BME280;47967;51.756;10.174;2024-02-16T16:19:50;99654.13;;;14.32;100.00
62011;BME280;47967;51.756;10.174;2024-02-16T16:23:54;99653.88;;;14.34;100.00
62011;BME280;47967;51.756;10.174;2024-02-16T16:27:56;99662.25;;;14.32;100.00
62011;BME280;47967;51.756;10.174;2024-02-16T16:31:59;99654.41;;;14.24;100.00
62011;BME280;47967;51.756;10.174;2024-02-16T16:36:07;99670.84;;;14.29;100.00
62011;BME280;47967;51.756;10.174;2024-02-16T16:40:16;99668.84;;;14.24;100.00
62011;BME280;47967;51.756;10.174;2024-02-16T16:44:18;99677.69;;;14.32;100.00
62011;BME280;47967;51.756;10.174;2024-02-16T16:48:23;99677.25;;;14.35;100.00
62011;BME280;47967;51.756;10.174;2024-02-16T16:52:26;99687.06;;;14.36;100.00
62011;BME280;47967;51.756;10.174;2024-02-16T16:56:30;99698.59;;;14.31;100.00
62011;BME280;47967;51.756;10.174;2024-02-16T17:00:33;99704.25;;;14.30;100.00
62011;BME280;47967;51.756;10.174;2024-02-16T17:04:35;99703.25;;;14.24;100.00
62011;BME280;47967;51.756;10.174;2024-02-16T17:08:38;99705.69;;;14.14;100.00
62011;BME280;47967;51.756;10.174;2024-02-16T17:12:46;99723.81;;;13.95;100.00
62011;BME280;47967;51.756;10.174;2024-02-16T17:16:49;99736.16;;;13.90;100.00
62011;BME280;47967;51.756;10.174;2024-02-16T17:20:52;99739.47;;;13.92;100.00
62011;BME280;47967;51.756;10.174;2024-02-16T17:24:55;99741.13;;;13.93;100.00
62011;BME280;47967;51.756;10.174;2024-02-16T17:28:58;99748.19;;;14.01;100.00
62011;BME280;47967;51.756;10.174;2024-02-16T17:33:01;99752.53;;;14.02;100.00
62011;BME280;47967;51.756;10.174;2024-02-16T17:37:04;99750.94;;;13.95;100.00
62011;BME280;47967;51.756;10.174;2024-02-16T17:41:07;99754.38;;;13.83;100.00
62011;BME280;47967;51.756;10.174;2024-02-16T17:45:10;99768.13;;;13.82;100.00
62011;BME280;47967;51.756;10.174;2024-02-16T17:49:13;99772.50;;;13.83;100.00
62011;BME280;47967;51.756;10.174;2024-02-16T17:53:16;99778.78;;;13.83;100.00
62011;BME280;47967;51.756;10.174;2024-02-16T17:57:19;99775.41;;;13.88;100.00
62011;BME280;47967;51.756;10.174;2024-02-16T18:01:23;99784.09;;;13.97;100.00
62011;BME280;47967;51.756;10.174;2024-02-16T18:05:26;99798.94;;;13.94;100.00
62011;BME280;47967;51.756;10.174;2024-02-16T18:09:28;99794.16;;;13.89;100.00
62011;BME280;47967;51.756;10.174;2024-02-16T18:13:31;99802.72;;;13.86;100.00
62011;BME280;47967;51.756;10.174;2024-02-16T18:17:35;99805.13;;;13.76;100.00
62011;BME280;47967;51.756;10.174;2024-02-16T18:21:37;99809.75;;;13.69;100.00
62011;BME280;47967;51.756;10.174;2024-02-16T18:25:40;99810.63;;;13.63;100.00
62011;BME280;47967;51.756;10.174;2024-02-16T18:29:43;99820.88;;;13.60;100.00
62011;BME280;47967;51.756;10.174;2024-02-16T18:33:47;99823.41;;;13.55;100.00
62011;BME280;47967;51.756;10.174;2024-02-16T18:37:49;99828.03;;;13.48;100.00
62011;BME280;47967;51.756;10.174;2024-02-16T18:41:52;99832.84;;;13.46;100.00
62011;BME280;47967;51.756;10.174;2024-02-16T18:45:55;99831.22;;;13.38;100.00
62011;BME280;47967;51.756;10.174;2024-02-16T18:49:59;99832.41;;;13.49;100.00
62011;BME280;47967;51.756;10.174;2024-02-16T18:54:02;99846.94;;;13.55;100.00
62011;BME280;47967;51.756;10.174;2024-02-16T18:58:06;99848.44;;;13.51;100.00
62011;BME280;47967;51.756;10.174;2024-02-16T19:02:09;99862.47;;;13.41;100.00
62011;BME280;47967;51.756;10.174;2024-02-16T19:06:13;99867.06;;;13.40;100.00
62011;BME280;47967;51.756;10.174;2024-02-16T19:10:15;99884.75;;;13.36;100.00
62011;BME280;47967;51.756;10.174;2024-02-16T19:14:18;99886.31;;;13.19;100.00
62011;BME280;47967;51.756;10.174;2024-02-16T19:18:22;99885.88;;;13.22;100.00
62011;BME280;47967;51.756;10.174;2024-02-16T19:22:26;99884.63;;;13.18;100.00
62011;BME280;47967;51.756;10.174;2024-02-16T19:26:28;99889.91;;;12.92;100.00
62011;BME280;47967;51.756;10.174;2024-02-16T19:30:32;99891.38;;;13.02;100.00
62011;BME280;47967;51.756;10.174;2024-02-16T19:34:35;99893.66;;;12.91;100.00
62011;BME280;47967;51.756;10.174;2024-02-16T19:38:39;99902.63;;;12.85;100.00
62011;BME280;47967;51.756;10.174;2024-02-16T19:42:42;99921.63;;;12.78;100.00
62011;BME280;47967;51.756;10.174;2024-02-16T19:46:45;99921.19;;;12.81;100.00
62011;BME280;47967;51.756;10.174;2024-02-16T19:50:47;99924.97;;;12.74;100.00
62011;BME280;47967;51.756;10.174;2024-02-16T19:54:51;99928.91;;;12.78;100.00
62011;BME280;47967;51.756;10.174;2024-02-16T19:58:55;99932.25;;;12.73;100.00
62011;BME280;47967;51.756;10.174;2024-02-16T20:02:57;99945.78;;;12.80;100.00
62011;BME280;47967;51.756;10.174;2024-02-16T20:07:01;99942.06;;;12.74;100.00
62011;BME280;47967;51.756;10.174;2024-02-16T20:11:05;99954.94;;;12.79;100.00
62011;BME280;47967;51.756;10.174;2024-02-16T20:15:08;99965.34;;;12.82;100.00
62011;BME280;47967;51.756;10.174;2024-02-16T20:19:10;99964.31;;;12.76;100.00
62011;BME280;47967;51.756;10.174;2024-02-16T20:23:14;99971.81;;;12.81;100.00
62011;BME280;47967;51.756;10.174;2024-02-16T20:27:19;99973.88;;;12.79;100.00
62011;BME280;47967;51.756;10.174;2024-02-16T20:31:21;99984.31;;;12.69;100.00
62011;BME280;47967;51.756;10.174;2024-02-16T20:35:24;99986.38;;;12.67;100.00
62011;BME280;47967;51.756;10.174;2024-02-16T20:39:26;99993.69;;;12.73;100.00
62011;BME280;47967;51.756;10.174;2024-02-16T20:43:30;99996.59;;;12.71;100.00
62011;BME280;47967;51.756;10.174;2024-02-16T20:47:33;100007.81;;;12.68;100.00
62011;BME280;47967;51.756;10.174;2024-02-16T20:51:35;100007.00;;;12.54;100.00
62011;BME280;47967;51.756;10.174;2024-02-16T20:55:38;100025.75;;;12.49;100.00
62011;BME280;47967;51.756;10.174;2024-02-16T20:59:42;100028.66;;;12.47;100.00
62011;BME280;47967;51.756;10.174;2024-02-16T21:03:44;100033.22;;;12.40;100.00
62011;BME280;47967;51.756;10.174;2024-02-16T21:07:47;100035.94;;;12.40;100.00
62011;BME280;47967;51.756;10.174;2024-02-16T21:11:50;100037.75;;;12.26;100.00
62011;BME280;47967;51.756;10.174;2024-02-16T21:15:54;100045.06;;;12.26;100.00
62011;BME280;47967;51.756;10.174;2024-02-16T21:19:56;100060.00;;;12.22;100.00
62011;BME280;47967;51.756;10.174;2024-02-16T21:23:59;100062.94;;;12.20;100.00
62011;BME280;47967;51.756;10.174;2024-02-16T21:28:01;100073.91;;;12.12;100.00
62011;BME280;47967;51.756;10.174;2024-02-16T21:32:06;100065.63;;;12.13;100.00
62011;BME280;47967;51.756;10.174;2024-02-16T21:36:09;100088.25;;;12.06;100.00
62011;BME280;47967;51.756;10.174;2024-02-16T21:40:13;100083.06;;;12.04;100.00
62011;BME280;47967;51.756;10.174;2024-02-16T21:44:17;100098.25;;;12.05;100.00
62011;BME280;47967;51.756;10.174;2024-02-16T21:48:21;100112.63;;;12.12;100.00
62011;BME280;47967;51.756;10.174;2024-02-16T21:52:36;100114.69;;;12.10;100.00
62011;BME280;47967;51.756;10.174;2024-02-16T21:56:39;100127.41;;;12.10;100.00
